Time;durP1;ratioP1;P1;durP2;ratioP2;P2;SDS_P1;SDS_P2;PMS_P1;PMS_P2;Temp;Humidity;BMP_temperature;BMP_pressure;BME280_temperature;BME280_humidity;BME280_pressure;Samples;Min_cycle;Max_cycle;Signal;HPM_P1;HPM_P2
2020/07/31 00:01:44;;;;;;;7;6;;;;;;;21.85;80.03418;940.7633;;;;
2020/07/31 00:04:09;;;;;;;7.7;6;;;;;;;21.83;79.9375;940.7653;;;;
2020/07/31 00:06:34;;;;;;;8.4;6.2;;;;;;;21.81;80.20508;940.7372;;;;
2020/07/31 00:09:00;;;;;;;9.9;5.9;;;;;;;21.68;80.56641;940.7136;;;;
2020/07/31 00:11:25;;;;;;;8.6;6.1;;;;;;;21.65;80.67871;940.7573;;;;
2020/07/31 00:13:50;;;;;;;10.1;5.9;;;;;;;21.72;80.37305;940.7344;;;;
2020/07/31 00:16:15;;;;;;;9;5.9;;;;;;;21.71;80.13867;940.7126;;;;
2020/07/31 00:18:40;;;;;;;7.1;5.6;;;;;;;21.66;80.25879;940.6607;;;;
2020/07/31 00:21:06;;;;;;;9.6;6.1;;;;;;;21.6;80.25781;940.6777;;;;
2020/07/31 00:23:31;;;;;;;7.7;5.8;;;;;;;21.59;80.44336;940.6828;;;;
2020/07/31 00:25:56;;;;;;;8.7;5.7;;;;;;;21.51;80.74609;940.6713;;;;
2020/07/31 00:28:24;;;;;;;7.4;5.5;;;;;;;21.52;80.74805;940.611;;;;
2020/07/31 00:30:49;;;;;;;8;5.8;;;;;;;21.5;80.6748;940.5881;;;;
2020/07/31 00:33:14;;;;;;;7;5.9;;;;;;;21.42;80.8457;940.5787;;;;
2020/07/31 00:35:39;;;;;;;8.9;5.8;;;;;;;21.38;81.40039;940.6116;;;;
2020/07/31 00:38:04;;;;;;;9;5.9;;;;;;;21.33;81.38086;940.5611;;;;
2020/07/31 00:40:29;;;;;;;8.3;6;;;;;;;21.39;81.02734;940.5903;;;;
2020/07/31 00:42:54;;;;;;;7.7;6;;;;;;;21.47;80.81836;940.5956;;;;
2020/07/31 00:45:20;;;;;;;6.7;5.6;;;;;;;21.52;80.47754;940.6103;;;;
2020/07/31 00:47:47;;;;;;;6.9;5.7;;;;;;;21.51;80.38184;940.6122;;;;
2020/07/31 00:50:12;;;;;;;7.8;5.9;;;;;;;21.45;80.46582;940.6261;;;;
2020/07/31 00:52:38;;;;;;;6.2;5.6;;;;;;;21.34;80.98242;940.6055;;;;
2020/07/31 00:55:03;;;;;;;10.4;5.9;;;;;;;21.35;80.78711;940.5695;;;;
2020/07/31 00:57:28;;;;;;;6.4;5.8;;;;;;;21.23;81.31543;940.6091;;;;
2020/07/31 00:59:53;;;;;;;8.5;5.9;;;;;;;21.17;81.37402;940.6289;;;;
2020/07/31 01:02:20;;;;;;;6.4;5.8;;;;;;;21.21;81.27539;940.6911;;;;
2020/07/31 01:04:45;;;;;;;11.5;6;;;;;;;21.14;81.35547;940.6575;;;;
2020/07/31 01:07:10;;;;;;;8.8;6.1;;;;;;;21.19;81.21387;940.6438;;;;
2020/07/31 01:09:36;;;;;;;10.4;6.3;;;;;;;21.18;81.28223;940.6756;;;;
2020/07/31 01:12:01;;;;;;;7.8;6.1;;;;;;;21.1;81.85352;940.6705;;;;
2020/07/31 01:14:26;;;;;;;8.8;6.6;;;;;;;21;82.34863;940.6325;;;;
2020/07/31 01:16:52;;;;;;;7.8;5.9;;;;;;;21;82.06738;940.63;;;;
2020/07/31 01:19:17;;;;;;;8.3;6.1;;;;;;;21.03;81.83887;940.6839;;;;
2020/07/31 01:21:42;;;;;;;8.3;5.5;;;;;;;21.07;81.74219;940.673;;;;
2020/07/31 01:24:07;;;;;;;7.4;6.1;;;;;;;21.14;81.33398;940.6937;;;;
2020/07/31 01:26:34;;;;;;;8;6.3;;;;;;;21.22;80.78613;940.6536;;;;
2020/07/31 01:28:59;;;;;;;7;6.3;;;;;;;21.25;80.33789;940.7009;;;;
2020/07/31 01:31:25;;;;;;;6.5;5.9;;;;;;;21.25;80.26563;940.676;;;;
2020/07/31 01:33:50;;;;;;;9;6.3;;;;;;;21.23;80.28613;940.7159;;;;
2020/07/31 01:36:16;;;;;;;7.7;6.1;;;;;;;20.91;81.77051;940.7086;;;;
2020/07/31 01:38:42;;;;;;;6.8;6.2;;;;;;;20.85;82.09766;940.7159;;;;
2020/07/31 01:41:08;;;;;;;8.7;6.2;;;;;;;20.86;81.79688;940.6306;;;;
2020/07/31 01:43:33;;;;;;;8.1;6.3;;;;;;;20.81;81.89258;940.7037;;;;
2020/07/31 01:45:58;;;;;;;8.7;6.7;;;;;;;20.65;82.71484;940.6666;;;;
2020/07/31 01:48:27;;;;;;;9;6.1;;;;;;;20.49;83.3291;940.6322;;;;
2020/07/31 01:50:56;;;;;;;7.9;6.4;;;;;;;20.56;83.04883;940.6378;;;;
2020/07/31 01:53:21;;;;;;;8.9;6.8;;;;;;;20.51;83.00488;940.6147;;;;
2020/07/31 01:55:48;;;;;;;8.4;5.9;;;;;;;20.57;82.52637;940.6641;;;;
2020/07/31 01:58:13;;;;;;;8.8;6.8;;;;;;;20.63;82.03418;940.6856;;;;
2020/07/31 02:00:44;;;;;;;8.9;6.7;;;;;;;20.55;82.55664;940.6317;;;;
2020/07/31 02:03:13;;;;;;;8.6;6.7;;;;;;;20.57;82.45508;940.6214;;;;
2020/07/31 02:05:40;;;;;;;12.7;6.5;;;;;;;20.55;82.38086;940.5829;;;;
2020/07/31 02:08:05;;;;;;;7.1;6;;;;;;;20.6;81.90039;940.5726;;;;
2020/07/31 02:10:30;;;;;;;8.8;6.5;;;;;;;20.6;81.98047;940.6433;;;;
2020/07/31 02:12:56;;;;;;;8.7;6.4;;;;;;;20.58;82.07227;940.5927;;;;
2020/07/31 02:15:29;;;;;;;9.4;6.4;;;;;;;20.54;82.13574;940.6083;;;;
2020/07/31 02:17:56;;;;;;;7.2;6.4;;;;;;;20.48;82.19434;940.5701;;;;
2020/07/31 02:20:23;;;;;;;7.6;6.2;;;;;;;20.43;82.34766;940.5706;;;;
2020/07/31 02:22:48;;;;;;;8.5;6.5;;;;;;;20.29;82.89258;940.5744;;;;
2020/07/31 02:25:13;;;;;;;10;6.4;;;;;;;20.26;82.93457;940.5192;;;;
2020/07/31 02:27:38;;;;;;;6.7;6;;;;;;;20.18;83.26953;940.4698;;;;
2020/07/31 02:30:03;;;;;;;10.2;6.7;;;;;;;20.05;83.67773;940.5053;;;;
2020/07/31 02:32:32;;;;;;;9.1;6.4;;;;;;;19.91;84.34961;940.488;;;;
2020/07/31 02:34:57;;;;;;;8;6.4;;;;;;;19.82;84.79883;940.4648;;;;
2020/07/31 02:37:22;;;;;;;8.3;6.3;;;;;;;19.86;84.5166;940.4601;;;;
2020/07/31 02:39:47;;;;;;;10.8;6.9;;;;;;;19.68;85.27441;940.4428;;;;
2020/07/31 02:42:14;;;;;;;8.7;6.6;;;;;;;19.77;84.8252;940.4805;;;;
2020/07/31 02:44:38;;;;;;;9.3;6.7;;;;;;;19.8;84.55078;940.4903;;;;
2020/07/31 02:47:04;;;;;;;9.9;6.3;;;;;;;19.78;84.4541;940.5012;;;;
2020/07/31 02:49:29;;;;;;;8.8;6.8;;;;;;;19.68;85.40234;940.4736;;;;
2020/07/31 02:51:54;;;;;;;8.4;6.4;;;;;;;19.68;85.34473;940.4558;;;;
2020/07/31 02:54:20;;;;;;;11.4;7;;;;;;;19.71;85.03516;940.4333;;;;
2020/07/31 02:56:45;;;;;;;10.3;7.2;;;;;;;19.74;84.70215;940.448;;;;
2020/07/31 02:59:10;;;;;;;10.3;6.9;;;;;;;19.66;84.97949;940.4053;;;;
2020/07/31 03:01:39;;;;;;;7.2;6.5;;;;;;;19.64;84.89258;940.4567;;;;
2020/07/31 03:04:05;;;;;;;9.5;6.9;;;;;;;19.49;85.30762;940.4423;;;;
2020/07/31 03:06:30;;;;;;;8.2;6.3;;;;;;;19.51;85.16016;940.4419;;;;
2020/07/31 03:08:55;;;;;;;9.2;6.8;;;;;;;19.52;85.26855;940.4506;;;;
2020/07/31 03:11:34;;;;;;;10.1;6.5;;;;;;;19.59;84.60449;940.4026;;;;
2020/07/31 03:14:01;;;;;;;8.5;6.4;;;;;;;19.68;84.21387;940.4196;;;;
2020/07/31 03:16:32;;;;;;;10.9;6.9;;;;;;;19.6;84.24512;940.353;;;;
2020/07/31 03:18:57;;;;;;;8.2;6.7;;;;;;;19.56;84.49414;940.4233;;;;
2020/07/31 03:21:22;;;;;;;7.4;6.7;;;;;;;19.56;84.2373;940.4403;;;;
2020/07/31 03:23:47;;;;;;;9.5;6.6;;;;;;;19.57;83.99512;940.4272;;;;
2020/07/31 03:26:13;;;;;;;7.3;6.6;;;;;;;19.35;84.93066;940.4636;;;;
2020/07/31 03:28:38;;;;;;;12.6;7;;;;;;;19.18;85.67969;940.4142;;;;
2020/07/31 03:31:04;;;;;;;12.4;7.4;;;;;;;19.18;86.17871;940.4281;;;;
2020/07/31 03:33:29;;;;;;;11.5;7.5;;;;;;;19.27;85.51074;940.4766;;;;
2020/07/31 03:35:54;;;;;;;13.7;7.1;;;;;;;19.37;84.87598;940.4738;;;;
2020/07/31 03:38:22;;;;;;;11.2;6.8;;;;;;;19.43;84.37695;940.5122;;;;
2020/07/31 03:40:47;;;;;;;13.6;7.1;;;;;;;19.39;84.34473;940.5831;;;;
2020/07/31 03:43:12;;;;;;;12.9;7;;;;;;;19.43;83.91113;940.5009;;;;
2020/07/31 03:45:40;;;;;;;15.1;7.5;;;;;;;19.45;83.72559;940.5111;;;;
2020/07/31 03:48:10;;;;;;;19.3;11.1;;;;;;;19.46;83.7041;940.5439;;;;
2020/07/31 03:50:35;;;;;;;15.9;9.5;;;;;;;19.42;83.7793;940.5075;;;;
2020/07/31 03:53:02;;;;;;;10.6;7.1;;;;;;;19.17;85.10547;940.5751;;;;
2020/07/31 03:55:27;;;;;;;11.6;7.2;;;;;;;19.26;84.81934;940.5325;;;;
2020/07/31 03:57:55;;;;;;;13.1;7.2;;;;;;;19.28;84.46387;940.5506;;;;
2020/07/31 04:02:30;;;;;;;16.9;6.9;;;;;;;19.23;84.37207;940.6339;;;;
2020/07/31 04:04:55;;;;;;;15;7;;;;;;;19.14;84.75098;940.6719;;;;
2020/07/31 04:07:20;;;;;;;18.5;7;;;;;;;19.13;84.44629;940.6075;;;;
2020/07/31 04:09:49;;;;;;;15.9;7.7;;;;;;;19.04;84.67383;940.6528;;;;
2020/07/31 04:12:16;;;;;;;17.9;7.5;;;;;;;18.92;85.19824;940.6741;;;;
2020/07/31 04:14:41;;;;;;;16.9;8.1;;;;;;;;;;;;;
2020/07/31 04:17:06;;;;;;;11.7;7.2;;;;;;;;;;;;;
2020/07/31 04:19:31;;;;;;;13.9;8;;;;;;;;;;;;;
2020/07/31 04:21:56;;;;;;;16.7;7.6;;;;;;;;;;;;;
2020/07/31 04:24:22;;;;;;;11.8;7.5;;;;;;;;;;;;;
2020/07/31 04:26:47;;;;;;;9.8;7.1;;;;;;;;;;;;;
2020/07/31 04:29:12;;;;;;;15.3;7.4;;;;;;;;;;;;;
2020/07/31 04:31:37;;;;;;;15.6;7;;;;;;;;;;;;;
2020/07/31 04:34:02;;;;;;;13;6.8;;;;;;;;;;;;;
2020/07/31 04:36:27;;;;;;;11;6.5;;;;;;;;;;;;;
2020/07/31 04:38:53;;;;;;;9.1;6.5;;;;;;;;;;;;;
2020/07/31 04:41:18;;;;;;;8.7;6.3;;;;;;;;;;;;;
2020/07/31 04:43:43;;;;;;;9.8;6;;;;;;;;;;;;;
2020/07/31 04:46:08;;;;;;;11.2;6;;;;;;;;;;;;;
2020/07/31 04:48:33;;;;;;;10.5;6.3;;;;;;;;;;;;;
2020/07/31 04:50:59;;;;;;;9.9;5.9;;;;;;;;;;;;;
2020/07/31 04:53:24;;;;;;;10.6;5.9;;;;;;;;;;;;;
2020/07/31 04:55:49;;;;;;;9.5;5.7;;;;;;;;;;;;;
2020/07/31 04:58:14;;;;;;;8.9;5.9;;;;;;;;;;;;;
2020/07/31 05:00:43;;;;;;;12.9;6.3;;;;;;;;;;;;;
2020/07/31 05:03:08;;;;;;;8.8;5.7;;;;;;;;;;;;;
2020/07/31 05:05:33;;;;;;;10.2;6;;;;;;;;;;;;;
2020/07/31 05:07:58;;;;;;;11.4;5.9;;;;;;;;;;;;;
2020/07/31 05:10:24;;;;;;;13.2;6;;;;;;;;;;;;;
2020/07/31 05:12:49;;;;;;;14.5;6;;;;;;;;;;;;;
2020/07/31 05:15:14;;;;;;;8;5.5;;;;;;;;;;;;;
2020/07/31 05:17:39;;;;;;;13.8;6.2;;;;;;;;;;;;;
2020/07/31 05:20:04;;;;;;;9.9;5.9;;;;;;;;;;;;;
2020/07/31 05:22:29;;;;;;;13;6.2;;;;;;;;;;;;;
2020/07/31 05:24:54;;;;;;;12.8;6.3;;;;;;;;;;;;;
2020/07/31 05:27:19;;;;;;;11.4;6;;;;;;;;;;;;;
2020/07/31 05:29:44;;;;;;;12.8;5.8;;;;;;;;;;;;;
2020/07/31 05:32:10;;;;;;;11.3;5.6;;;;;;;;;;;;;
2020/07/31 05:34:35;;;;;;;11.7;5.7;;;;;;;;;;;;;
2020/07/31 05:37:00;;;;;;;7.6;4.5;;;;;;;;;;;;;
2020/07/31 05:39:25;;;;;;;11;4.3;;;;;;;;;;;;;
2020/07/31 05:41:50;;;;;;;10.6;4.3;;;;;;;;;;;;;
2020/07/31 05:44:15;;;;;;;7.8;4;;;;;;;;;;;;;
2020/07/31 05:46:40;;;;;;;7.2;4;;;;;;;;;;;;;
2020/07/31 05:49:07;;;;;;;7.4;3.3;;;;;;;;;;;;;
2020/07/31 05:51:36;;;;;;;8.3;3.5;;;;;;;;;;;;;
2020/07/31 05:54:01;;;;;;;7.1;3.3;;;;;;;;;;;;;
2020/07/31 05:56:26;;;;;;;6.5;3.5;;;;;;;;;;;;;
2020/07/31 05:58:51;;;;;;;10.4;3.7;;;;;;;;;;;;;
2020/07/31 06:01:17;;;;;;;7.9;3.8;;;;;;;;;;;;;
2020/07/31 06:03:41;;;;;;;8.2;3.7;;;;;;;;;;;;;
2020/07/31 06:06:07;;;;;;;7.1;3.3;;;;;;;;;;;;;
2020/07/31 06:08:35;;;;;;;9.4;3.2;;;;;;;;;;;;;
2020/07/31 06:11:00;;;;;;;6.9;3.2;;;;;;;;;;;;;
2020/07/31 06:13:25;;;;;;;6.4;3.2;;;;;;;;;;;;;
2020/07/31 06:15:51;;;;;;;5.6;3.2;;;;;;;;;;;;;
2020/07/31 06:18:18;;;;;;;7.2;3.2;;;;;;;;;;;;;
2020/07/31 06:20:44;;;;;;;9.2;3.6;;;;;;;;;;;;;
2020/07/31 06:23:09;;;;;;;9.5;3.3;;;;;;;;;;;;;
2020/07/31 06:25:34;;;;;;;5.3;3.2;;;;;;;;;;;;;
2020/07/31 06:27:59;;;;;;;6.6;3;;;;;;;;;;;;;
2020/07/31 06:30:24;;;;;;;5.1;3;;;;;;;;;;;;;
2020/07/31 06:32:52;;;;;;;6.2;3;;;;;;;;;;;;;
2020/07/31 06:35:17;;;;;;;5.7;2.7;;;;;;;;;;;;;
2020/07/31 06:37:42;;;;;;;6.1;2.8;;;;;;;;;;;;;
2020/07/31 06:40:07;;;;;;;5.4;2.9;;;;;;;;;;;;;
2020/07/31 06:42:32;;;;;;;4.8;2.6;;;;;;;;;;;;;
2020/07/31 06:45:00;;;;;;;5.6;2.8;;;;;;;;;;;;;
2020/07/31 06:47:24;;;;;;;5.3;2.9;;;;;;;;;;;;;
2020/07/31 06:49:50;;;;;;;4.3;2.9;;;;;;;;;;;;;
2020/07/31 06:52:16;;;;;;;7.3;2.9;;;;;;;;;;;;;
2020/07/31 06:54:41;;;;;;;3.5;2.6;;;;;;;;;;;;;
2020/07/31 06:57:08;;;;;;;4.6;3.2;;;;;;;;;;;;;
2020/07/31 06:59:33;;;;;;;5.9;3.1;;;;;;;;;;;;;
2020/07/31 07:01:58;;;;;;;5.5;3.1;;;;;;;;;;;;;
2020/07/31 07:04:24;;;;;;;4.8;2.9;;;;;;;;;;;;;
2020/07/31 07:06:49;;;;;;;6.1;3;;;;;;;;;;;;;
2020/07/31 07:09:14;;;;;;;6.1;2.9;;;;;;;;;;;;;
2020/07/31 07:11:39;;;;;;;7.3;3;;;;;;;;;;;;;
2020/07/31 07:14:04;;;;;;;3.5;2.8;;;;;;;;;;;;;
2020/07/31 07:16:30;;;;;;;3.5;3.1;;;;;;;;;;;;;
2020/07/31 07:18:56;;;;;;;5.4;3.3;;;;;;;;;;;;;
2020/07/31 07:21:21;;;;;;;5.1;3;;;;;;;;;;;;;
2020/07/31 07:23:46;;;;;;;5;3;;;;;;;;;;;;;
2020/07/31 07:26:11;;;;;;;6;3;;;;;;;;;;;;;
2020/07/31 07:28:36;;;;;;;6;3.3;;;;;;;;;;;;;
2020/07/31 07:31:03;;;;;;;4.2;2.6;;;;;;;;;;;;;
2020/07/31 07:33:28;;;;;;;6.5;2.9;;;;;;;;;;;;;
2020/07/31 07:35:54;;;;;;;4.3;2.7;;;;;;;;;;;;;
2020/07/31 07:38:20;;;;;;;5.8;3;;;;;;;;;;;;;
2020/07/31 07:40:45;;;;;;;5.4;2.9;;;;;;;;;;;;;
2020/07/31 07:43:10;;;;;;;6.4;3.1;;;;;;;;;;;;;
2020/07/31 07:45:36;;;;;;;8.3;3.5;;;;;;;;;;;;;
2020/07/31 07:48:03;;;;;;;4.8;2.7;;;;;;;;;;;;;
2020/07/31 07:50:28;;;;;;;6.1;2.8;;;;;;;;;;;;;
2020/07/31 07:52:54;;;;;;;5.8;3;;;;;;;;;;;;;
2020/07/31 07:55:21;;;;;;;5.4;2.9;;;;;;;;;;;;;
2020/07/31 07:57:46;;;;;;;6.5;2.8;;;;;;;;;;;;;
2020/07/31 08:00:14;;;;;;;4.8;3;;;;;;;;;;;;;
2020/07/31 08:02:39;;;;;;;3.5;2.5;;;;;;;;;;;;;
2020/07/31 08:05:14;;;;;;;5.8;2.7;;;;;;;;;;;;;
2020/07/31 08:07:38;;;;;;;5.5;2.8;;;;;;;;;;;;;
2020/07/31 08:10:04;;;;;;;6.5;2.7;;;;;;;;;;;;;
2020/07/31 08:12:29;;;;;;;6.8;3;;;;;;;;;;;;;
2020/07/31 08:14:55;;;;;;;4.8;3;;;;;;;;;;;;;
2020/07/31 08:17:20;;;;;;;6.5;3.3;;;;;;;;;;;;;
2020/07/31 08:19:45;;;;;;;4.6;3.2;;;;;;;;;;;;;
2020/07/31 08:22:10;;;;;;;7.1;3.3;;;;;;;;;;;;;
2020/07/31 08:24:35;;;;;;;6.9;3.1;;;;;;;;;;;;;
2020/07/31 08:27:02;;;;;;;5.3;2.9;;;;;;;;;;;;;
2020/07/31 08:29:28;;;;;;;4.5;2.8;;;;;;;;;;;;;
2020/07/31 08:31:54;;;;;;;6.2;3.2;;;;;;;;;;;;;
2020/07/31 08:34:19;;;;;;;5.1;2.6;;;;;;;;;;;;;
2020/07/31 08:36:44;;;;;;;7.3;2.9;;;;;;;;;;;;;
2020/07/31 08:39:10;;;;;;;6.7;3;;;;;;;;;;;;;
2020/07/31 08:41:36;;;;;;;4.8;3;;;;;;;;;;;;;
2020/07/31 08:44:04;;;;;;;6.4;2.5;;;;;;;;;;;;;
2020/07/31 08:46:29;;;;;;;5.4;3;;;;;;;;;;;;;
2020/07/31 08:48:55;;;;;;;4.7;2.9;;;;;;;;;;;;;
2020/07/31 08:51:20;;;;;;;4.8;3.1;;;;;;;;;;;;;
2020/07/31 08:53:45;;;;;;;5.6;2.6;;;;;;;;;;;;;
2020/07/31 08:56:10;;;;;;;6.4;2.7;;;;;;;;;;;;;
2020/07/31 08:58:35;;;;;;;6.3;2.5;;;;;;;;;;;;;
2020/07/31 09:01:00;;;;;;;5.9;2.6;;;;;;;;;;;;;
2020/07/31 09:03:28;;;;;;;6.7;2.7;;;;;;;;;;;;;
2020/07/31 09:05:52;;;;;;;4.5;2.7;;;;;;;;;;;;;
2020/07/31 09:08:19;;;;;;;6.4;2.8;;;;;;;;;;;;;
2020/07/31 09:10:44;;;;;;;5.2;2.5;;;;;;;;;;;;;
2020/07/31 09:13:09;;;;;;;7.6;2.9;;;;;;;;;;;;;
2020/07/31 09:15:34;;;;;;;6.8;3;;;;;;;;;;;;;
2020/07/31 09:18:02;;;;;;;8.4;3;;;;;;;;;;;;;
2020/07/31 09:20:27;;;;;;;6.5;3;;;;;;;;;;;;;
2020/07/31 09:22:52;;;;;;;8.7;3.3;;;;;;;;;;;;;
2020/07/31 09:25:19;;;;;;;4.7;3;;;;;;;;;;;;;
2020/07/31 09:27:45;;;;;;;6.3;2.9;;;;;;;;;;;;;
2020/07/31 09:30:10;;;;;;;9.4;3;;;;;;;;;;;;;
2020/07/31 09:32:35;;;;;;;4.4;2.8;;;;;;;;;;;;;
2020/07/31 09:35:01;;;;;;;9.9;3.1;;;;;;;;;;;;;
2020/07/31 09:37:26;;;;;;;7;3.2;;;;;;;;;;;;;
2020/07/31 09:39:53;;;;;;;7.2;3;;;;;;;;;;;;;
2020/07/31 09:42:18;;;;;;;12;3.1;;;;;;;;;;;;;
2020/07/31 09:44:45;;;;;;;6;2.9;;;;;;;;;;;;;
2020/07/31 09:47:10;;;;;;;6.7;2.9;;;;;;;;;;;;;
2020/07/31 09:49:37;;;;;;;6.4;2.6;;;;;;;;;;;;;
2020/07/31 09:52:01;;;;;;;4.7;3;;;;;;;;;;;;;
2020/07/31 09:54:28;;;;;;;6.4;2.4;;;;;;;;;;;;;
2020/07/31 09:56:53;;;;;;;9;2.9;;;;;;;;;;;;;
2020/07/31 09:59:18;;;;;;;4.9;2.7;;;;;;;;;;;;;
2020/07/31 10:01:43;;;;;;;6.1;2.6;;;;;;;;;;;;;
2020/07/31 10:04:11;;;;;;;9.4;2.9;;;;;;;;;;;;;
2020/07/31 10:06:36;;;;;;;5.8;2.9;;;;;;;;;;;;;
2020/07/31 10:09:02;;;;;;;5.2;2.8;;;;;;;;;;;;;
2020/07/31 10:11:27;;;;;;;5.5;2.8;;;;;;;;;;;;;
2020/07/31 10:13:53;;;;;;;5.5;2.8;;;;;;;;;;;;;
2020/07/31 10:16:19;;;;;;;5.4;2.8;;;;;;;;;;;;;
2020/07/31 10:18:45;;;;;;;6.5;2.7;;;;;;;;;;;;;
2020/07/31 10:21:10;;;;;;;4.9;2.6;;;;;;;;;;;;;
2020/07/31 10:23:37;;;;;;;5.6;2.7;;;;;;;;;;;;;
2020/07/31 10:26:02;;;;;;;5;2.6;;;;;;;;;;;;;
2020/07/31 10:28:27;;;;;;;5.2;2.6;;;;;;;;;;;;;
2020/07/31 10:30:52;;;;;;;3.1;2.5;;;;;;;;;;;;;
2020/07/31 10:33:17;;;;;;;6;2.6;;;;;;;;;;;;;
2020/07/31 10:35:43;;;;;;;5.6;2.5;;;;;;;;;;;;;
2020/07/31 10:38:08;;;;;;;6.1;3;;;;;;;;;;;;;
2020/07/31 10:40:33;;;;;;;5.3;2.8;;;;;;;;;;;;;
2020/07/31 10:42:58;;;;;;;13.1;4.7;;;;;;;;;;;;;
2020/07/31 10:45:26;;;;;;;4.7;2.5;;;;;;;;;;;;;
2020/07/31 10:47:51;;;;;;;3.3;2.5;;;;;;;;;;;;;
2020/07/31 10:50:16;;;;;;;5.5;2.7;;;;;;;;;;;;;
2020/07/31 10:52:41;;;;;;;4.9;2.5;;;;;;;;;;;;;
2020/07/31 10:55:08;;;;;;;4.8;2.7;;;;;;;;;;;;;
2020/07/31 10:57:34;;;;;;;6.7;2.7;;;;;;;;;;;;;
2020/07/31 10:59:59;;;;;;;6.6;2.6;;;;;;;;;;;;;
2020/07/31 11:02:24;;;;;;;4.8;2.7;;;;;;;;;;;;;
2020/07/31 11:04:52;;;;;;;5.7;2.6;;;;;;;;;;;;;
2020/07/31 11:07:15;;;;;;;5.6;2.6;;;;;;;;;;;;;
2020/07/31 11:09:40;;;;;;;3.6;2.5;;;;;;;;;;;;;
2020/07/31 11:12:06;;;;;;;8.3;2.9;;;;;;;;;;;;;
2020/07/31 11:14:31;;;;;;;5.5;2.7;;;;;;;;;;;;;
2020/07/31 11:16:56;;;;;;;7.2;2.6;;;;;;;;;;;;;
2020/07/31 11:19:21;;;;;;;5.6;3;;;;;;;;;;;;;
2020/07/31 11:21:46;;;;;;;5.6;2.3;;;;;;;;;;;;;
2020/07/31 11:24:11;;;;;;;4.7;2.7;;;;;;;;;;;;;
2020/07/31 11:26:36;;;;;;;4.3;2.8;;;;;;;;;;;;;
2020/07/31 11:29:02;;;;;;;5.1;2.5;;;;;;;;;;;;;
2020/07/31 11:31:29;;;;;;;3.3;2.8;;;;;;;;;;;;;
2020/07/31 11:33:54;;;;;;;3.8;2.5;;;;;;;;;;;;;
2020/07/31 11:36:19;;;;;;;6.4;2.7;;;;;;;;;;;;;
2020/07/31 11:38:44;;;;;;;4.4;2.6;;;;;;;;;;;;;
2020/07/31 11:41:09;;;;;;;6.1;2.4;;;;;;;;;;;;;
2020/07/31 11:43:35;;;;;;;7.2;2.9;;;;;;;;;;;;;
2020/07/31 11:46:00;;;;;;;8.2;3.3;;;;;;;;;;;;;
2020/07/31 11:48:25;;;;;;;4.8;2.7;;;;;;;;;;;;;
2020/07/31 11:50:50;;;;;;;4.5;2.7;;;;;;;;;;;;;
2020/07/31 11:53:15;;;;;;;5.7;2.6;;;;;;;;;;;;;
2020/07/31 11:55:40;;;;;;;6.3;2.7;;;;;;;;;;;;;
2020/07/31 11:58:05;;;;;;;5.1;2.6;;;;;;;;;;;;;
2020/07/31 12:00:31;;;;;;;6.7;2.9;;;;;;;;;;;;;
2020/07/31 12:02:56;;;;;;;5.4;2.7;;;;;;;;;;;;;
2020/07/31 12:05:21;;;;;;;5.5;2.9;;;;;;;;;;;;;
2020/07/31 12:07:46;;;;;;;4;2.7;;;;;;;;;;;;;
2020/07/31 12:10:11;;;;;;;8.6;2.8;;;;;;;;;;;;;
2020/07/31 12:12:36;;;;;;;4.2;2.7;;;;;;;;;;;;;
2020/07/31 12:15:02;;;;;;;3.8;2.8;;;;;;;;;;;;;
2020/07/31 12:17:31;;;;;;;4.4;2.8;;;;;;;;;;;;;
2020/07/31 12:19:52;;;;;;;6.5;2.8;;;;;;;;;;;;;
2020/07/31 12:22:18;;;;;;;6.8;2.9;;;;;;;;;;;;;
2020/07/31 12:27:07;;;;;;;4.4;2.9;;;;;;;;;;;;;
2020/07/31 12:29:32;;;;;;;6.2;2.9;;;;;;;;;;;;;
2020/07/31 12:31:57;;;;;;;5.7;2.9;;;;;;;;;;;;;
2020/07/31 12:34:23;;;;;;;5.6;2.9;;;;;;;;;;;;;
2020/07/31 12:36:48;;;;;;;4.8;2.7;;;;;;;;;;;;;
2020/07/31 12:39:17;;;;;;;6.7;2.9;;;;;;;;;;;;;
2020/07/31 12:41:38;;;;;;;4.6;2.7;;;;;;;;;;;;;
2020/07/31 12:44:04;;;;;;;6.5;2.9;;;;;;;;;;;;;
2020/07/31 12:46:29;;;;;;;6.8;3.1;;;;;;;;;;;;;
2020/07/31 12:48:54;;;;;;;7.3;3.1;;;;;;;;;;;;;
2020/07/31 12:51:19;;;;;;;6.7;2.9;;;;;;;;;;;;;
2020/07/31 12:53:44;;;;;;;7.3;3;;;;;;;;;;;;;
2020/07/31 12:56:09;;;;;;;6;2.9;;;;;;;;;;;;;
2020/07/31 12:58:35;;;;;;;8.4;2.9;;;;;;;;;;;;;
2020/07/31 13:01:02;;;;;;;8.3;3.3;;;;;;;;;;;;;
2020/07/31 13:03:27;;;;;;;5.4;3;;;;;;;;;;;;;
2020/07/31 13:05:54;;;;;;;5.9;3.1;;;;;;;;;;;;;
2020/07/31 13:08:19;;;;;;;4.7;3.3;;;;;;;;;;;;;
2020/07/31 13:10:46;;;;;;;5.6;3;;;;;;;;;;;;;
2020/07/31 13:13:11;;;;;;;8.5;3.1;;;;;;;;;;;;;
2020/07/31 13:15:37;;;;;;;6.5;3.1;;;;;;;;;;;;;
2020/07/31 13:18:02;;;;;;;10;3.4;;;;;;;;;;;;;
2020/07/31 13:20:27;;;;;;;7.5;3.4;;;;;;;;;;;;;
2020/07/31 13:22:52;;;;;;;7.6;3.3;;;;;;;;;;;;;
2020/07/31 13:25:20;;;;;;;5.6;3.2;;;;;;;;;;;;;
2020/07/31 13:27:45;;;;;;;8.3;3.4;;;;;;;;;;;;;
2020/07/31 13:30:12;;;;;;;15;3.8;;;;;;;;;;;;;
2020/07/31 13:32:37;;;;;;;7.7;3.4;;;;;;;;;;;;;
2020/07/31 13:35:02;;;;;;;6.7;3.3;;;;;;;;;;;;;
2020/07/31 13:37:27;;;;;;;5.4;3.2;;;;;;;;;;;;;
2020/07/31 13:39:52;;;;;;;5.2;3.4;;;;;;;;;;;;;
2020/07/31 13:42:17;;;;;;;5.7;3.1;;;;;;;;;;;;;
2020/07/31 13:44:43;;;;;;;6.1;3.3;;;;;;;;;;;;;
2020/07/31 13:47:08;;;;;;;7.3;3.2;;;;;;;;;;;;;
2020/07/31 13:49:33;;;;;;;7.1;3.5;;;;;;;;;;;;;
2020/07/31 13:51:59;;;;;;;6.3;3.2;;;;;;;;;;;;;
2020/07/31 13:54:24;;;;;;;5.1;3.2;;;;;;;;;;;;;
2020/07/31 13:56:50;;;;;;;6.7;3.5;;;;;;;;;;;;;
2020/07/31 13:59:15;;;;;;;6.1;3.4;;;;;;;;;;;;;
2020/07/31 14:01:41;;;;;;;5;3.3;;;;;;;;;;;;;
2020/07/31 14:04:21;;;;;;;7.8;3.2;;;;;;;;;;;;;
2020/07/31 14:06:31;;;;;;;8.5;3.3;;;;;;;;;;;;;
2020/07/31 14:08:56;;;;;;;9;3.4;;;;;;;;;;;;;
2020/07/31 14:11:23;;;;;;;8.3;3.6;;;;;;;;;;;;;
2020/07/31 14:13:48;;;;;;;9.6;4;;;;;;;;;;;;;
2020/07/31 14:16:14;;;;;;;4.8;3.4;;;;;;;;;;;;;
2020/07/31 14:18:39;;;;;;;8;3.6;;;;;;;;;;;;;
2020/07/31 14:21:05;;;;;;;6.6;3.3;;;;;;;;;;;;;
2020/07/31 14:23:30;;;;;;;6.2;3.7;;;;;;;;;;;;;
2020/07/31 14:25:55;;;;;;;7.1;3.9;;;;;;;;;;;;;
2020/07/31 14:28:20;;;;;;;9.7;4.4;;;;;;;;;;;;;
2020/07/31 14:30:47;;;;;;;13;4.4;;;;;;;;;;;;;
2020/07/31 14:33:12;;;;;;;7.8;3.9;;;;;;;;;;;;;
2020/07/31 14:35:37;;;;;;;7.5;3.8;;;;;;;;;;;;;
2020/07/31 14:38:02;;;;;;;11.9;5.2;;;;;;;;;;;;;
2020/07/31 14:40:28;;;;;;;7.7;3.5;;;;;;;;;;;;;
2020/07/31 14:42:53;;;;;;;6.6;3.3;;;;;;;;;;;;;
2020/07/31 14:45:19;;;;;;;13.7;4.7;;;;;;;;;;;;;
2020/07/31 14:47:44;;;;;;;6.8;4;;;;;;;;;;;;;
2020/07/31 14:50:10;;;;;;;9.5;4.5;;;;;;;;;;;;;
2020/07/31 14:52:35;;;;;;;9.1;4.4;;;;;;;;;;;;;
2020/07/31 14:55:00;;;;;;;11.1;4.1;;;;;;;;;;;;;
2020/07/31 14:57:25;;;;;;;8.1;3.8;;;;;;;;;;;;;
2020/07/31 14:59:50;;;;;;;6;3;;;;;;;;;;;;;
2020/07/31 15:02:15;;;;;;;7.9;3.3;;;;;;;;;;;;;
2020/07/31 15:04:41;;;;;;;7.9;3.7;;;;;;;;;;;;;
2020/07/31 15:07:06;;;;;;;8.8;3.4;;;;;;;;;;;;;
2020/07/31 15:09:31;;;;;;;11;3.6;;;;;;;;;;;;;
2020/07/31 15:11:56;;;;;;;8.7;3.3;;;;;;;;;;;;;
2020/07/31 15:14:24;;;;;;;9.1;3.4;;;;;;;;;;;;;
2020/07/31 15:16:49;;;;;;;10.2;3.4;;;;;;;;;;;;;
2020/07/31 15:19:16;;;;;;;7.1;3.5;;;;;;;;;;;;;
2020/07/31 15:21:42;;;;;;;7.6;3.7;;;;;;;;;;;;;
2020/07/31 15:24:07;;;;;;;8.1;3.6;;;;;;;;;;;;;
2020/07/31 15:26:33;;;;;;;6.6;3.4;;;;;;;;;;;;;
2020/07/31 15:28:58;;;;;;;6.4;3.8;;;;;;;;;;;;;
2020/07/31 15:31:27;;;;;;;7.7;3.5;;;;;;;;;;;;;
2020/07/31 15:33:52;;;;;;;7.1;3.4;;;;;;;;;;;;;
2020/07/31 15:36:17;;;;;;;6.6;3.4;;;;;;;;;;;;;
2020/07/31 15:38:42;;;;;;;9.2;3.4;;;;;;;;;;;;;
2020/07/31 15:41:09;;;;;;;6.7;3.6;;;;;;;;;;;;;
2020/07/31 15:43:34;;;;;;;10.4;3.9;;;;;;;;;;;;;
2020/07/31 15:45:59;;;;;;;5;3.3;;;;;;;;;;;;;
2020/07/31 15:48:25;;;;;;;5.8;3.5;;;;;;;;;;;;;
2020/07/31 15:50:50;;;;;;;5.7;3.6;;;;;;;;;;;;;
2020/07/31 15:53:17;;;;;;;7.8;3.4;;;;;;;;;;;;;
2020/07/31 15:55:42;;;;;;;6.5;3.6;;;;;;;;;;;;;
2020/07/31 15:58:07;;;;;;;7.2;3.5;;;;;;;;;;;;;
2020/07/31 16:00:33;;;;;;;6.7;3.5;;;;;;;;;;;;;
2020/07/31 16:02:58;;;;;;;4.9;3.5;;;;;;;;;;;;;
2020/07/31 16:05:23;;;;;;;6.3;3.6;;;;;;;;;;;;;
2020/07/31 16:07:49;;;;;;;5.8;3.6;;;;;;;;;;;;;
2020/07/31 16:10:13;;;;;;;5.4;3.6;;;;;;;;;;;;;
2020/07/31 16:12:39;;;;;;;7.7;3.4;;;;;;;;;;;;;
2020/07/31 16:15:04;;;;;;;5.2;3.4;;;;;;;;;;;;;
2020/07/31 16:17:30;;;;;;;9.3;3.4;;;;;;;;;;;;;
2020/07/31 16:19:54;;;;;;;6.9;3.4;;;;;;;;;;;;;
2020/07/31 16:22:20;;;;;;;8;3.4;;;;;;;;;;;;;
2020/07/31 16:24:46;;;;;;;5.3;3.3;;;;;;;;;;;;;
2020/07/31 16:27:11;;;;;;;6.5;3.6;;;;;;;;;;;;;
2020/07/31 16:29:36;;;;;;;6.7;3.8;;;;;;;;;;;;;
2020/07/31 16:32:01;;;;;;;6.3;3.5;;;;;;;;;;;;;
2020/07/31 16:34:26;;;;;;;7.6;3.8;;;;;;;;;;;;;
2020/07/31 16:36:51;;;;;;;6.2;3.5;;;;;;;;;;;;;
2020/07/31 16:39:17;;;;;;;6.5;3.7;;;;;;;;;;;;;
2020/07/31 16:41:43;;;;;;;6.4;3.5;;;;;;;;;;;;;
2020/07/31 16:44:07;;;;;;;7.3;4.9;;;;;;;;;;;;;
2020/07/31 16:46:32;;;;;;;12.5;9.5;;;;;;;;;;;;;
2020/07/31 16:48:57;;;;;;;12.2;10.1;;;;;;;;;;;;;
2020/07/31 16:51:22;;;;;;;11.1;7.2;;;;;;;;;;;;;
2020/07/31 16:53:47;;;;;;;7.3;4.7;;;;;;;;;;;;;
2020/07/31 16:56:12;;;;;;;7.1;3.9;;;;;;;;;;;;;
2020/07/31 16:58:37;;;;;;;9.1;5.3;;;;;;;;;;;;;
2020/07/31 17:01:04;;;;;;;12.3;6.3;;;;;;;;;;;;;
2020/07/31 17:03:29;;;;;;;10.8;5;;;;;;;;;;;;;
2020/07/31 17:05:54;;;;;;;6.2;4.9;;;;;;;;;;;;;
2020/07/31 17:08:19;;;;;;;7.1;4.8;;;;;;;;;;;;;
2020/07/31 17:10:45;;;;;;;6.6;4.8;;;;;;;;;;;;;
2020/07/31 17:13:10;;;;;;;8.9;4.4;;;;;;;;;;;;;
2020/07/31 17:15:35;;;;;;;6.8;4.9;;;;;;;;;;;;;
2020/07/31 17:18:00;;;;;;;8.1;4.1;;;;;;;;;;;;;
2020/07/31 17:20:27;;;;;;;5.8;4;;;;;;;;;;;;;
2020/07/31 17:22:52;;;;;;;7.1;4.3;;;;;;;;;;;;;
2020/07/31 17:25:17;;;;;;;8.2;4.2;;;;;;;;;;;;;
2020/07/31 17:27:42;;;;;;;5;3.9;;;;;;;;;;;;;
2020/07/31 17:30:07;;;;;;;8.2;4.3;;;;;;;;;;;;;
2020/07/31 17:32:33;;;;;;;15.8;5;;;;;;;;;;;;;
2020/07/31 17:34:58;;;;;;;11.3;5;;;;;;;;;;;;;
2020/07/31 17:37:24;;;;;;;12.5;5.1;;;;;;;;;;;;;
2020/07/31 17:39:49;;;;;;;10.3;5.2;;;;;;;;;;;;;
2020/07/31 17:42:14;;;;;;;10.9;4.9;;;;;;;;;;;;;
2020/07/31 17:44:39;;;;;;;14.9;5.6;;;;;;;;;;;;;
2020/07/31 17:47:50;;;;;;;12.3;5.1;;;;;;;;;;;;;
2020/07/31 17:50:15;;;;;;;12.9;5.5;;;;;;;;;;;;;
2020/07/31 17:52:41;;;;;;;16.8;5.6;;;;;;;;;;;;;
2020/07/31 17:55:06;;;;;;;13.8;5.2;;;;;;;;;;;;;
2020/07/31 17:57:31;;;;;;;14.2;5.8;;;;;;;;;;;;;
2020/07/31 17:59:56;;;;;;;12.1;5.7;;;;;;;;;;;;;
2020/07/31 18:02:21;;;;;;;12.1;5.9;;;;;;;;;;;;;
2020/07/31 18:04:46;;;;;;;13.4;5.7;;;;;;;;;;;;;
2020/07/31 18:07:11;;;;;;;13.5;5.7;;;;;;;;;;;;;
2020/07/31 18:09:36;;;;;;;16.1;6;;;;;;;;;;;;;
2020/07/31 18:12:02;;;;;;;10.1;5.7;;;;;;;;;;;;;
2020/07/31 18:14:27;;;;;;;17;6.2;;;;;;;;;;;;;
2020/07/31 18:16:52;;;;;;;12.4;6;;;;;;;;;;;;;
2020/07/31 18:19:17;;;;;;;12;6.1;;;;;;;;;;;;;
2020/07/31 18:21:42;;;;;;;11.3;5.6;;;;;;;;;;;;;
2020/07/31 18:24:07;;;;;;;14.6;5.5;;;;;;;;;;;;;
2020/07/31 18:26:32;;;;;;;9;5.2;;;;;;;;;;;;;
2020/07/31 18:28:57;;;;;;;11.8;5.5;;;;;;;;;;;;;
2020/07/31 18:31:22;;;;;;;9.6;5.6;;;;;;;;;;;;;
2020/07/31 18:33:47;;;;;;;11.5;5.4;;;;;;;;;;;;;
2020/07/31 18:36:13;;;;;;;8.4;5.2;;;;;;;;;;;;;
2020/07/31 18:38:38;;;;;;;10;5;;;;;;;;;;;;;
2020/07/31 18:41:03;;;;;;;10.1;5.2;;;;;;;;;;;;;
2020/07/31 18:43:28;;;;;;;7;5.3;;;;;;;;;;;;;
2020/07/31 18:45:54;;;;;;;8.9;5.6;;;;;;;;;;;;;
2020/07/31 18:48:19;;;;;;;10.1;5.7;;;;;;;;;;;;;